Time;durP1;ratioP1;P1;durP2;ratioP2;P2;SDS_P1;SDS_P2;PMS_P1;PMS_P2;Temp;Humidity;BMP_temperature;BMP_pressure;BME280_temperature;BME280_humidity;BME280_pressure;Samples;Min_cycle;Max_cycle;Signal;HPM_P1;HPM_P2
2023/04/21 00:02:06;;;;;;;20.95;11.85;;;7.70;99.90;;;;;;5094444;28;20040;-62
2023/04/21 00:04:34;;;;;;;24.48;12.32;;;7.70;99.90;;;;;;5094467;28;20040;-62
2023/04/21 00:07:03;;;;;;;22.90;12.18;;;7.70;99.90;;;;;;5094121;28;20498;-62
2023/04/21 00:09:30;;;;;;;20.00;12.10;;;7.70;99.90;;;;;;5092948;28;20039;-61
2023/04/21 00:11:56;;;;;;;23.83;12.55;;;7.70;99.90;;;;;;5112822;28;20039;-61
2023/04/21 00:14:23;;;;;;;21.20;11.93;;;7.70;99.90;;;;;;5113597;28;20047;-61
2023/04/21 00:16:51;;;;;;;20.70;12.57;;;7.70;99.90;;;;;;5113556;28;20040;-61
2023/04/21 00:19:18;;;;;;;22.20;12.50;;;7.70;99.90;;;;;;5113102;28;20043;-61
2023/04/21 00:21:45;;;;;;;25.73;13.05;;;7.70;99.90;;;;;;5113433;28;20052;-61
2023/04/21 00:24:12;;;;;;;25.65;13.35;;;7.70;99.90;;;;;;5113229;28;20415;-61
2023/04/21 00:26:39;;;;;;;19.25;12.30;;;7.70;99.90;;;;;;5113296;28;20062;-61
2023/04/21 00:29:06;;;;;;;26.42;13.27;;;7.70;99.90;;;;;;5112112;28;20458;-61
2023/04/21 00:31:33;;;;;;;20.70;13.70;;;7.70;99.90;;;;;;5095082;28;20112;-61
2023/04/21 00:34:00;;;;;;;25.48;13.70;;;7.70;99.90;;;;;;5112108;28;20035;-61
2023/04/21 00:36:27;;;;;;;26.85;13.57;;;7.70;99.90;;;;;;5111866;28;20047;-61
2023/04/21 00:38:54;;;;;;;28.48;14.45;;;7.70;99.90;;;;;;5113256;28;20047;-62
2023/04/21 00:41:22;;;;;;;24.33;13.70;;;7.70;99.90;;;;;;5113046;28;20454;-61
2023/04/21 00:43:49;;;;;;;24.42;14.02;;;7.70;99.90;;;;;;5111787;28;20482;-61
2023/04/21 00:46:15;;;;;;;26.52;15.00;;;7.60;99.90;;;;;;5111763;28;20108;-61
2023/04/21 00:48:42;;;;;;;28.70;15.23;;;7.70;99.90;;;;;;5111756;28;20040;-61
2023/04/21 00:51:09;;;;;;;25.35;14.52;;;7.70;99.90;;;;;;5111893;28;20520;-61
2023/04/21 00:53:36;;;;;;;22.75;14.45;;;7.70;99.90;;;;;;5113079;28;20114;-61
2023/04/21 00:56:02;;;;;;;25.10;15.05;;;7.70;99.90;;;;;;5113026;28;20519;-61
2023/04/21 00:58:29;;;;;;;21.10;14.93;;;7.70;99.90;;;;;;5113130;28;20420;-61
2023/04/21 01:00:56;;;;;;;22.95;15.63;;;7.60;99.90;;;;;;5111513;28;20161;-61
2023/04/21 01:03:23;;;;;;;27.33;15.75;;;7.60;99.90;;;;;;5111727;28;20039;-61
2023/04/21 01:05:50;;;;;;;22.83;15.80;;;7.70;99.90;;;;;;5112785;28;20478;-61
2023/04/21 01:08:17;;;;;;;24.75;15.27;;;7.70;99.90;;;;;;5110924;28;20097;-61
2023/04/21 01:10:43;;;;;;;26.83;15.68;;;7.70;99.90;;;;;;5109587;28;20093;-62
2023/04/21 01:13:11;;;;;;;29.02;16.00;;;7.70;99.90;;;;;;5111482;28;20551;-62
2023/04/21 01:15:38;;;;;;;23.80;15.65;;;7.70;99.90;;;;;;5111615;28;20548;-61
2023/04/21 01:18:04;;;;;;;31.10;16.38;;;7.70;99.90;;;;;;5112967;28;20040;-61
2023/04/21 01:20:31;;;;;;;27.00;16.92;;;7.70;99.90;;;;;;5112654;28;20112;-61
2023/04/21 01:22:58;;;;;;;28.67;17.50;;;7.70;99.90;;;;;;5112828;28;20043;-60
2023/04/21 01:25:27;;;;;;;26.77;17.27;;;7.70;99.90;;;;;;5111501;28;20032;-60
2023/04/21 01:27:54;;;;;;;25.70;16.33;;;7.70;99.90;;;;;;5112728;28;20123;-60
2023/04/21 01:30:21;;;;;;;20.55;16.25;;;7.70;99.90;;;;;;5112737;28;20501;-60
2023/04/21 01:32:48;;;;;;;25.63;17.48;;;7.70;99.90;;;;;;5115510;28;20040;-61
2023/04/21 01:35:15;;;;;;;31.27;17.70;;;7.70;99.90;;;;;;5115216;28;20067;-60
2023/04/21 01:37:41;;;;;;;24.75;16.33;;;7.70;99.90;;;;;;5116397;28;20046;-61
2023/04/21 01:40:08;;;;;;;23.13;16.38;;;7.70;99.90;;;;;;5116347;28;20043;-61
2023/04/21 01:42:35;;;;;;;28.15;16.65;;;7.70;99.90;;;;;;5116297;28;20048;-61
2023/04/21 01:45:01;;;;;;;22.65;17.23;;;7.70;99.90;;;;;;5115237;28;20040;-60
2023/04/21 01:47:29;;;;;;;29.90;17.40;;;7.70;99.90;;;;;;5098140;28;20046;-61
2023/04/21 01:49:56;;;;;;;24.15;16.85;;;7.70;99.90;;;;;;5114703;28;20043;-60
2023/04/21 01:52:22;;;;;;;24.85;16.00;;;7.80;99.90;;;;;;5114755;28;20050;-60
2023/04/21 01:54:52;;;;;;;29.65;17.58;;;7.70;99.90;;;;;;5098052;28;20048;-61
2023/04/21 01:57:19;;;;;;;31.13;18.42;;;7.70;99.90;;;;;;5114737;28;20039;-61
2023/04/21 01:59:46;;;;;;;27.73;17.55;;;7.70;99.90;;;;;;5097636;28;20039;-61
2023/04/21 02:02:12;;;;;;;23.85;17.48;;;7.70;99.90;;;;;;5114586;28;20073;-61
2023/04/21 02:04:39;;;;;;;31.52;17.27;;;7.70;99.90;;;;;;5114716;28;20047;-61
2023/04/21 02:07:07;;;;;;;26.50;17.20;;;7.70;99.90;;;;;;5114468;28;20055;-61
2023/04/21 02:09:33;;;;;;;29.92;18.98;;;7.60;99.90;;;;;;5111831;28;20052;-61
2023/04/21 02:12:01;;;;;;;27.63;18.48;;;7.50;99.90;;;;;;5115930;28;20551;-61
2023/04/21 02:14:27;;;;;;;25.98;18.38;;;7.40;99.90;;;;;;5114235;28;20574;-60
2023/04/21 02:16:55;;;;;;;33.08;20.08;;;7.40;99.90;;;;;;5097518;28;20130;-61
2023/04/21 02:19:22;;;;;;;35.10;19.95;;;7.30;99.90;;;;;;5115476;28;20039;-61
2023/04/21 02:21:48;;;;;;;29.13;18.95;;;7.30;99.90;;;;;;5114387;28;20052;-59
2023/04/21 02:24:15;;;;;;;31.63;19.92;;;7.20;99.90;;;;;;5115596;28;20491;-61
2023/04/21 02:26:43;;;;;;;32.35;18.95;;;7.20;99.90;;;;;;5114021;28;20059;-61
2023/04/21 02:29:10;;;;;;;31.73;20.08;;;7.10;99.90;;;;;;5114126;28;20048;-61
2023/04/21 02:31:37;;;;;;;31.42;20.05;;;7.10;99.90;;;;;;5114400;28;20043;-60
2023/04/21 02:34:23;;;;;;;33.33;20.75;;;7.10;99.90;;;;;;5095942;28;20101;-60
2023/04/21 02:36:50;;;;;;;34.15;20.55;;;7.00;99.90;;;;;;5095760;28;20517;-61
2023/04/21 02:39:18;;;;;;;35.42;20.33;;;7.00;99.90;;;;;;5094298;28;20135;-60
2023/04/21 02:41:45;;;;;;;36.78;20.13;;;6.90;99.90;;;;;;5095473;28;20051;-60
2023/04/21 02:44:12;;;;;;;36.50;20.67;;;6.90;99.90;;;;;;5094323;28;20123;-60
2023/04/21 02:46:38;;;;;;;34.08;19.92;;;6.80;99.90;;;;;;5095563;28;20070;-60
2023/04/21 02:49:05;;;;;;;36.90;20.45;;;6.80;99.90;;;;;;5094069;28;20055;-61
2023/04/21 02:51:32;;;;;;;32.20;19.70;;;6.70;99.90;;;;;;5103773;28;20444;-61
2023/04/21 02:53:59;;;;;;;36.13;20.50;;;6.70;99.90;;;;;;5113498;28;20044;-61
2023/04/21 02:56:26;;;;;;;35.33;19.92;;;6.70;99.90;;;;;;5113226;28;20055;-60
2023/04/21 02:58:53;;;;;;;31.70;20.67;;;6.60;99.90;;;;;;5114738;28;20043;-58
2023/04/21 03:01:19;;;;;;;35.10;20.75;;;6.60;99.90;;;;;;5113569;28;20043;-60
2023/04/21 03:03:46;;;;;;;36.42;20.08;;;6.60;99.90;;;;;;5096674;28;20070;-60
2023/04/21 03:06:13;;;;;;;38.30;20.38;;;6.50;99.90;;;;;;5113716;28;20417;-62
2023/04/21 03:08:47;;;;;;;36.70;21.55;;;6.50;99.90;;;;;;5113602;28;20057;-62
2023/04/21 03:11:13;;;;;;;38.67;19.77;;;6.50;99.90;;;;;;5114406;27;20059;-62
2023/04/21 03:13:40;;;;;;;32.83;20.30;;;6.50;99.90;;;;;;5114422;28;20446;-61
2023/04/21 03:16:07;;;;;;;30.48;20.50;;;6.50;99.90;;;;;;5096242;28;20043;-61
2023/04/21 03:18:35;;;;;;;32.78;20.83;;;6.60;99.90;;;;;;5112032;28;20104;-61
2023/04/21 03:21:01;;;;;;;37.90;20.45;;;6.50;99.90;;;;;;5114128;28;20074;-61
2023/04/21 03:23:28;;;;;;;36.00;20.85;;;6.50;99.90;;;;;;5112964;28;20051;-62
2023/04/21 03:25:55;;;;;;;32.28;20.75;;;6.50;99.90;;;;;;5113151;28;20117;-61
2023/04/21 03:28:22;;;;;;;34.80;20.77;;;6.50;99.90;;;;;;5114377;28;20112;-61
2023/04/21 03:30:50;;;;;;;34.25;20.90;;;6.50;99.90;;;;;;5112724;28;20043;-62
2023/04/21 03:33:17;;;;;;;30.77;20.75;;;6.50;99.90;;;;;;5112745;28;20067;-61
2023/04/21 03:35:44;;;;;;;31.42;20.13;;;6.50;99.90;;;;;;5112691;28;20035;-61
2023/04/21 03:38:10;;;;;;;35.83;21.13;;;6.50;99.90;;;;;;5114297;28;20474;-61
2023/04/21 03:40:37;;;;;;;37.65;22.65;;;6.50;99.90;;;;;;5114052;28;20089;-61
2023/04/21 03:43:04;;;;;;;39.63;21.05;;;6.50;99.90;;;;;;5112778;28;20498;-60
2023/04/21 03:45:32;;;;;;;38.50;21.70;;;6.40;99.90;;;;;;5095947;28;20039;-61
2023/04/21 03:47:59;;;;;;;40.58;22.23;;;6.40;99.90;;;;;;5112679;28;20401;-62
2023/04/21 03:50:25;;;;;;;35.50;21.17;;;6.40;99.90;;;;;;5113453;28;20122;-62
2023/04/21 03:52:52;;;;;;;37.55;22.33;;;6.40;99.90;;;;;;5113475;28;20202;-61
2023/04/21 03:55:19;;;;;;;35.60;20.80;;;6.40;99.90;;;;;;5110787;28;20044;-62
2023/04/21 03:57:46;;;;;;;35.50;23.38;;;6.40;99.90;;;;;;5113781;28;20036;-62
2023/04/21 04:00:12;;;;;;;36.22;22.05;;;6.40;99.90;;;;;;5113512;28;20043;-62
2023/04/21 04:02:39;;;;;;;34.63;22.10;;;6.40;99.90;;;;;;5113923;28;20473;-61
2023/04/21 04:05:06;;;;;;;38.53;21.98;;;6.40;99.90;;;;;;5113636;28;20123;-62
2023/04/21 04:07:33;;;;;;;38.55;22.17;;;6.40;99.90;;;;;;5113607;28;20046;-61
2023/04/21 04:10:00;;;;;;;37.42;22.67;;;6.40;99.90;;;;;;5112094;28;20050;-61
2023/04/21 04:12:26;;;;;;;39.30;23.30;;;6.40;99.90;;;;;;5105777;28;20431;-62
2023/04/21 04:14:53;;;;;;;38.90;21.75;;;6.40;99.90;;;;;;5094265;28;20483;-62
2023/04/21 04:17:20;;;;;;;36.65;23.55;;;6.40;99.90;;;;;;5093729;28;20040;-62
2023/04/21 04:19:47;;;;;;;37.63;22.92;;;6.40;99.90;;;;;;5107956;28;20699;-62
2023/04/21 04:22:13;;;;;;;34.42;22.83;;;6.40;99.90;;;;;;5113583;28;20098;-62
2023/04/21 04:24:40;;;;;;;38.88;23.98;;;6.40;99.90;;;;;;5112012;28;20089;-62
2023/04/21 04:27:08;;;;;;;38.47;22.35;;;6.40;99.90;;;;;;5108208;28;20086;-62
2023/04/21 04:29:35;;;;;;;43.75;23.63;;;6.40;99.90;;;;;;5112147;28;20432;-61
2023/04/21 04:32:02;;;;;;;32.88;21.95;;;6.40;99.90;;;;;;5113016;28;20455;-61
2023/04/21 04:34:29;;;;;;;37.47;24.25;;;6.30;99.90;;;;;;5111792;28;20481;-62
2023/04/21 04:36:57;;;;;;;36.80;23.40;;;6.30;99.90;;;;;;5107114;28;20068;-62
2023/04/21 04:39:24;;;;;;;35.72;22.92;;;6.30;99.90;;;;;;5112034;28;20046;-62
2023/04/21 04:41:51;;;;;;;34.65;23.10;;;6.30;99.90;;;;;;5113203;28;20043;-61
2023/04/21 04:44:18;;;;;;;43.50;22.38;;;6.40;99.90;;;;;;5113210;28;20047;-62
2023/04/21 04:46:45;;;;;;;35.17;22.08;;;6.40;99.90;;;;;;5112967;28;20048;-61
2023/04/21 04:49:12;;;;;;;38.03;22.02;;;6.40;99.90;;;;;;5113436;28;20101;-62
2023/04/21 04:51:39;;;;;;;40.22;21.58;;;6.50;99.90;;;;;;5113110;28;20089;-62
2023/04/21 04:54:06;;;;;;;38.17;22.92;;;6.50;99.90;;;;;;5113029;28;20046;-62
2023/04/21 04:56:32;;;;;;;34.80;22.00;;;6.50;99.90;;;;;;5112963;28;20143;-62
2023/04/21 04:59:00;;;;;;;39.10;22.95;;;6.50;99.90;;;;;;5111855;28;20539;-60
2023/04/21 05:01:29;;;;;;;41.47;22.95;;;6.50;99.90;;;;;;5112800;28;20078;-62
2023/04/21 05:03:56;;;;;;;35.70;22.92;;;6.60;99.90;;;;;;5113309;28;20088;-63
2023/04/21 05:06:23;;;;;;;35.00;22.05;;;6.60;99.90;;;;;;5100155;28;20463;-62
2023/04/21 05:08:50;;;;;;;37.95;22.80;;;6.60;99.90;;;;;;5097353;28;20040;-62
2023/04/21 05:11:17;;;;;;;34.53;22.35;;;6.70;99.90;;;;;;5117141;28;20082;-62
2023/04/21 05:13:43;;;;;;;37.65;21.60;;;6.70;99.90;;;;;;5117124;28;20416;-63
2023/04/21 05:16:10;;;;;;;40.30;23.42;;;6.80;99.90;;;;;;5112937;28;20036;-61
2023/04/21 05:18:37;;;;;;;32.25;21.42;;;6.80;99.90;;;;;;5117343;28;20120;-60
2023/04/21 05:21:04;;;;;;;33.28;20.85;;;6.90;99.90;;;;;;5117187;28;20062;-61
2023/04/21 05:23:31;;;;;;;41.47;22.17;;;6.90;99.90;;;;;;5097170;28;20047;-60
2023/04/21 05:25:57;;;;;;;35.75;21.55;;;6.90;99.90;;;;;;5103654;28;20494;-61
2023/04/21 05:28:28;;;;;;;29.63;20.48;;;7.00;99.90;;;;;;5097396;28;20054;-60
2023/04/21 05:30:55;;;;;;;37.92;21.92;;;7.00;99.90;;;;;;5103443;28;20074;-61
2023/04/21 05:33:22;;;;;;;32.80;21.50;;;7.00;99.90;;;;;;5116989;28;20071;-62
2023/04/21 05:35:49;;;;;;;32.45;21.73;;;7.00;99.90;;;;;;5116739;28;20502;-61
2023/04/21 05:38:15;;;;;;;35.08;21.73;;;7.00;99.90;;;;;;5095942;28;20036;-62
2023/04/21 05:40:42;;;;;;;34.33;21.90;;;7.10;99.90;;;;;;5109864;28;20131;-62
2023/04/21 05:43:09;;;;;;;33.70;21.42;;;7.10;99.90;;;;;;5097059;28;20044;-61
2023/04/21 05:45:36;;;;;;;34.58;20.58;;;7.10;99.90;;;;;;5116543;28;20078;-61
2023/04/21 05:48:03;;;;;;;30.30;20.02;;;7.10;99.90;;;;;;5116751;28;20085;-61
2023/04/21 05:50:32;;;;;;;33.17;20.75;;;7.10;99.90;;;;;;5116037;28;20042;-63
2023/04/21 05:52:59;;;;;;;31.98;20.13;;;7.20;99.90;;;;;;5116585;28;20039;-62
2023/04/21 05:55:26;;;;;;;33.85;20.35;;;7.20;99.90;;;;;;5098379;28;20390;-60
2023/04/21 05:57:53;;;;;;;33.85;20.88;;;7.20;99.90;;;;;;5116140;28;20398;-61
2023/04/21 06:00:19;;;;;;;35.33;20.60;;;7.20;99.90;;;;;;5116368;28;20509;-60
2023/04/21 06:02:46;;;;;;;31.35;19.67;;;7.20;99.90;;;;;;5116373;28;20035;-60
2023/04/21 06:05:13;;;;;;;33.75;19.67;;;7.20;99.90;;;;;;5115248;28;20046;-60
2023/04/21 06:07:40;;;;;;;35.40;19.33;;;7.30;99.90;;;;;;5116099;28;20039;-60
2023/04/21 06:10:07;;;;;;;31.92;18.67;;;7.20;99.90;;;;;;5115688;28;20551;-60
2023/04/21 06:12:34;;;;;;;29.58;19.02;;;7.30;99.90;;;;;;5116024;28;20036;-62
2023/04/21 06:15:00;;;;;;;30.40;18.58;;;7.30;99.90;;;;;;5115912;28;20036;-61
2023/04/21 06:17:27;;;;;;;29.98;18.50;;;7.40;99.90;;;;;;5115488;28;20040;-60
2023/04/21 06:19:54;;;;;;;28.95;18.75;;;7.40;99.90;;;;;;5115743;28;20043;-63
2023/04/21 06:22:21;;;;;;;30.65;17.92;;;7.40;99.90;;;;;;5115718;28;20054;-62
2023/04/21 06:24:48;;;;;;;26.50;17.92;;;7.40;99.90;;;;;;5115493;28;20119;-61
2023/04/21 06:27:15;;;;;;;25.60;17.52;;;7.50;99.90;;;;;;5115782;28;20042;-62
2023/04/21 06:29:42;;;;;;;26.58;18.30;;;7.50;99.90;;;;;;5115750;28;20075;-62
2023/04/21 06:32:08;;;;;;;27.60;17.65;;;7.60;99.90;;;;;;5115497;27;20054;-62
2023/04/21 06:34:35;;;;;;;25.13;16.20;;;7.60;99.90;;;;;;5110412;28;20116;-61
2023/04/21 06:37:02;;;;;;;23.45;15.70;;;7.60;99.90;;;;;;5096066;28;20044;-62
2023/04/21 06:39:29;;;;;;;24.48;16.52;;;7.50;99.90;;;;;;5095968;28;20094;-62
2023/04/21 06:41:57;;;;;;;26.30;16.92;;;7.60;99.90;;;;;;5095848;28;20048;-59
2023/04/21 06:44:25;;;;;;;23.40;16.17;;;7.70;99.90;;;;;;5095653;28;20032;-62
2023/04/21 06:46:52;;;;;;;29.27;16.35;;;7.80;99.90;;;;;;5095685;28;20048;-61
2023/04/21 06:49:19;;;;;;;24.67;15.95;;;7.80;99.90;;;;;;5095534;28;20082;-61
2023/04/21 06:51:46;;;;;;;25.00;15.02;;;7.80;99.90;;;;;;5095696;28;20036;-60
2023/04/21 06:54:13;;;;;;;21.85;14.63;;;7.80;99.90;;;;;;5095741;28;20429;-63
2023/04/21 06:56:41;;;;;;;22.88;15.13;;;7.80;99.90;;;;;;5095213;28;20118;-61
2023/04/21 06:59:08;;;;;;;26.75;15.98;;;7.80;99.90;;;;;;5095489;28;20479;-62
2023/04/21 07:01:35;;;;;;;20.02;14.27;;;7.80;99.90;;;;;;5095341;28;20048;-62
2023/04/21 07:04:03;;;;;;;19.75;14.35;;;7.80;99.90;;;;;;5095497;28;20048;-61
2023/04/21 07:06:30;;;;;;;18.80;14.52;;;7.80;99.90;;;;;;5095225;28;20105;-63
2023/04/21 07:08:57;;;;;;;22.58;13.98;;;7.80;99.90;;;;;;5095194;28;20082;-60
2023/04/21 07:11:24;;;;;;;20.75;13.90;;;7.90;99.90;;;;;;5095039;28;20036;-61
2023/04/21 07:13:51;;;;;;;21.75;14.63;;;7.90;99.90;;;;;;5095108;28;20040;-61
2023/04/21 07:16:17;;;;;;;18.63;13.20;;;7.90;99.90;;;;;;5095153;28;20042;-61
2023/04/21 07:18:44;;;;;;;18.50;13.10;;;7.90;99.90;;;;;;5095001;28;20042;-61
2023/04/21 07:21:11;;;;;;;17.67;12.63;;;7.90;99.90;;;;;;5094948;28;20048;-61
2023/04/21 07:23:38;;;;;;;17.80;12.13;;;7.80;99.90;;;;;;5093697;28;20131;-61
2023/04/21 07:26:05;;;;;;;16.17;12.38;;;7.80;99.90;;;;;;5098507;28;20055;-60
2023/04/21 07:28:31;;;;;;;15.18;10.93;;;7.80;99.90;;;;;;5113761;28;20148;-61
2023/04/21 07:30:58;;;;;;;15.48;11.50;;;7.80;99.90;;;;;;5114203;28;20047;-61
2023/04/21 07:33:28;;;;;;;16.45;12.00;;;7.70;99.90;;;;;;5114251;28;20458;-60
2023/04/21 07:35:55;;;;;;;14.05;11.35;;;7.80;99.90;;;;;;5114345;28;20078;-61
2023/04/21 07:38:21;;;;;;;13.20;10.85;;;7.80;99.90;;;;;;5114235;28;20042;-61
2023/04/21 07:40:48;;;;;;;15.43;11.38;;;7.80;99.90;;;;;;5106540;28;20075;-61
2023/04/21 07:43:15;;;;;;;14.88;10.75;;;7.80;99.90;;;;;;5094070;28;20047;-61
2023/04/21 07:45:42;;;;;;;18.65;11.52;;;7.80;99.90;;;;;;5094174;28;20093;-62
2023/04/21 07:48:08;;;;;;;16.50;12.05;;;7.80;99.90;;;;;;5094309;28;20040;-61
2023/04/21 07:50:35;;;;;;;17.13;12.02;;;7.80;99.90;;;;;;5093498;28;20048;-60
2023/04/21 07:53:02;;;;;;;14.07;11.02;;;7.90;99.90;;;;;;5096107;28;20115;-59
2023/04/21 07:55:29;;;;;;;16.00;12.52;;;7.80;99.90;;;;;;5113439;28;20048;-61
2023/04/21 07:57:56;;;;;;;15.40;11.60;;;7.90;99.90;;;;;;5112201;28;20040;-61
2023/04/21 08:00:22;;;;;;;18.27;12.10;;;7.90;99.90;;;;;;5108774;28;20119;-61
2023/04/21 08:02:49;;;;;;;15.43;12.13;;;7.80;99.90;;;;;;5113965;28;20093;-59
2023/04/21 08:05:16;;;;;;;17.65;13.02;;;7.80;99.90;;;;;;5112877;28;20133;-60
2023/04/21 08:07:43;;;;;;;18.33;12.30;;;7.90;99.90;;;;;;5114046;28;20051;-61
2023/04/21 08:10:10;;;;;;;20.88;12.82;;;7.90;99.90;;;;;;5113704;28;20139;-61
2023/04/21 08:12:37;;;;;;;17.70;12.95;;;7.80;99.90;;;;;;5112823;28;20035;-62
2023/04/21 08:15:07;;;;;;;17.30;12.93;;;7.80;99.90;;;;;;5113888;28;20440;-61
2023/04/21 08:17:33;;;;;;;16.30;12.80;;;7.90;99.90;;;;;;5113940;28;20168;-62
2023/04/21 08:20:00;;;;;;;22.42;12.60;;;7.90;99.90;;;;;;5113762;28;20134;-61
2023/04/21 08:22:27;;;;;;;19.75;13.75;;;7.80;99.90;;;;;;5113706;28;20478;-61
2023/04/21 08:24:54;;;;;;;17.33;13.27;;;7.80;99.90;;;;;;5113621;28;20119;-61
2023/04/21 08:27:21;;;;;;;18.80;13.23;;;7.70;99.90;;;;;;5113847;28;20043;-61
2023/04/21 08:29:47;;;;;;;30.83;13.48;;;7.70;99.90;;;;;;5108398;28;20039;-61
2023/04/21 08:32:14;;;;;;;16.17;12.55;;;7.60;99.90;;;;;;5113671;28;20111;-61
2023/04/21 08:34:41;;;;;;;15.10;12.95;;;7.60;99.90;;;;;;5112573;28;20393;-61
2023/04/21 08:37:08;;;;;;;16.33;13.00;;;7.60;99.90;;;;;;5113833;28;20049;-61
2023/04/21 08:39:35;;;;;;;18.27;13.38;;;7.60;99.90;;;;;;5095392;28;20036;-60
2023/04/21 08:42:02;;;;;;;21.08;13.00;;;7.50;99.90;;;;;;5112536;28;20044;-61
2023/04/21 08:44:28;;;;;;;15.80;12.50;;;7.50;99.90;;;;;;5113560;28;20407;-60
2023/04/21 08:46:55;;;;;;;17.05;12.18;;;7.50;99.90;;;;;;5113621;28;20079;-59
2023/04/21 08:49:22;;;;;;;14.13;11.38;;;7.50;99.90;;;;;;5113560;28;20036;-62
2023/04/21 08:51:49;;;;;;;15.70;12.82;;;7.50;99.90;;;;;;5114275;28;20035;-60
2023/04/21 08:54:16;;;;;;;15.57;12.77;;;7.50;99.90;;;;;;5112759;28;20085;-62
2023/04/21 08:56:43;;;;;;;19.48;14.43;;;7.50;99.90;;;;;;5113544;28;20059;-61
2023/04/21 08:59:09;;;;;;;16.20;12.93;;;7.50;99.90;;;;;;5114222;28;20040;-62
2023/04/21 09:01:36;;;;;;;15.52;13.60;;;7.50;99.90;;;;;;5112544;28;20043;-62
2023/04/21 09:04:03;;;;;;;16.20;13.00;;;7.50;99.90;;;;;;5113990;28;20063;-61
2023/04/21 09:06:30;;;;;;;15.63;12.45;;;7.60;99.90;;;;;;5112735;28;20043;-62
2023/04/21 09:08:56;;;;;;;14.77;11.85;;;7.50;99.90;;;;;;5112907;28;20040;-62
2023/04/21 09:11:24;;;;;;;15.85;12.18;;;7.50;99.90;;;;;;5113672;28;20093;-62
2023/04/21 09:13:51;;;;;;;14.55;11.88;;;7.50;99.90;;;;;;5113706;28;20040;-61
2023/04/21 09:16:21;;;;;;;15.88;12.07;;;7.50;99.90;;;;;;5113686;28;20036;-61
2023/04/21 09:18:48;;;;;;;14.52;11.77;;;7.50;99.90;;;;;;5113645;28;20032;-60
2023/04/21 09:21:15;;;;;;;15.23;12.23;;;7.50;99.90;;;;;;5113173;28;20040;-61
2023/04/21 09:23:42;;;;;;;14.95;12.27;;;7.50;99.90;;;;;;5112331;28;20036;-60
2023/04/21 09:26:09;;;;;;;16.45;13.65;;;7.50;99.90;;;;;;5112251;28;20036;-62
2023/04/21 09:28:36;;;;;;;15.95;12.95;;;7.50;99.90;;;;;;5112215;28;20093;-61
2023/04/21 09:31:02;;;;;;;18.15;12.35;;;7.60;99.90;;;;;;5112169;28;20031;-61
2023/04/21 09:33:30;;;;;;;14.07;11.13;;;7.60;99.90;;;;;;5111035;28;20605;-62
2023/04/21 09:36:12;;;;;;;16.23;12.50;;;7.60;99.90;;;;;;5111004;28;20546;-61
2023/04/21 09:38:39;;;;;;;19.27;11.90;;;7.50;99.90;;;;;;5113843;28;20390;-61
2023/04/21 09:41:06;;;;;;;15.25;11.10;;;7.50;99.90;;;;;;5113230;28;20039;-62
2023/04/21 09:43:33;;;;;;;16.05;11.63;;;7.60;99.90;;;;;;5113624;28;20081;-61
2023/04/21 09:46:00;;;;;;;12.18;10.57;;;7.60;99.90;;;;;;5113751;28;20037;-61
2023/04/21 09:48:28;;;;;;;11.13;9.93;;;7.70;99.90;;;;;;5112724;28;20040;-60
2023/04/21 09:50:55;;;;;;;12.50;9.80;;;7.70;99.90;;;;;;5113587;28;20032;-61
2023/04/21 09:53:24;;;;;;;12.85;9.60;;;7.70;99.90;;;;;;5117412;28;20042;-62
2023/04/21 09:55:51;;;;;;;12.23;10.05;;;7.70;99.90;;;;;;5117109;28;20051;-62
2023/04/21 09:58:18;;;;;;;11.73;9.35;;;7.70;99.90;;;;;;5117014;28;20538;-62
2023/04/21 10:00:45;;;;;;;12.52;11.23;;;7.70;99.90;;;;;;5117365;28;20127;-62
2023/04/21 10:03:12;;;;;;;11.23;8.88;;;7.70;99.90;;;;;;5116911;28;20044;-62
2023/04/21 10:05:39;;;;;;;10.57;9.05;;;7.80;99.90;;;;;;5117073;28;20043;-62
2023/04/21 10:08:10;;;;;;;9.82;7.68;;;7.80;99.90;;;;;;5116973;28;20051;-61
2023/04/21 10:10:37;;;;;;;10.88;7.70;;;7.90;99.90;;;;;;5117062;28;20437;-61
2023/04/21 10:13:04;;;;;;;9.40;7.30;;;8.00;99.90;;;;;;5116924;28;20078;-61
2023/04/21 10:15:31;;;;;;;8.70;7.07;;;8.20;99.90;;;;;;5116893;28;20058;-61
2023/04/21 10:17:58;;;;;;;8.43;7.53;;;8.30;99.90;;;;;;5117213;28;20118;-62
2023/04/21 10:20:25;;;;;;;8.20;7.10;;;8.50;99.90;;;;;;5116746;27;20032;-61
2023/04/21 10:22:51;;;;;;;7.75;6.50;;;8.60;99.90;;;;;;5116635;28;20444;-61
2023/04/21 10:25:18;;;;;;;8.00;6.80;;;8.70;99.90;;;;;;5116627;28;20394;-62
2023/04/21 10:27:45;;;;;;;10.45;7.07;;;8.80;99.90;;;;;;5116504;28;20374;-61
2023/04/21 10:30:11;;;;;;;9.15;7.22;;;8.90;99.90;;;;;;5116267;28;20512;-62
2023/04/21 10:32:39;;;;;;;7.10;6.40;;;8.90;99.90;;;;;;5116586;28;20071;-62
2023/04/21 10:35:06;;;;;;;9.95;8.82;;;8.90;99.90;;;;;;5116665;28;20059;-62
2023/04/21 10:37:33;;;;;;;10.20;7.07;;;8.90;99.90;;;;;;5116298;28;20031;-62
2023/04/21 10:39:59;;;;;;;8.60;7.63;;;8.80;99.90;;;;;;5116339;28;20047;-61
2023/04/21 10:42:26;;;;;;;9.18;7.95;;;8.80;99.90;;;;;;5116364;28;20074;-61
2023/04/21 10:44:53;;;;;;;9.30;8.05;;;8.80;99.90;;;;;;5115073;28;20039;-62
2023/04/21 10:47:20;;;;;;;11.02;7.88;;;8.80;99.90;;;;;;5116032;28;20071;-62
2023/04/21 10:49:47;;;;;;;9.15;7.65;;;8.90;99.90;;;;;;5116077;28;20074;-62
2023/04/21 10:52:15;;;;;;;9.30;7.45;;;8.90;99.90;;;;;;5115984;28;20409;-61
2023/04/21 10:54:42;;;;;;;10.30;7.95;;;9.00;99.90;;;;;;5115702;28;20445;-62
2023/04/21 10:57:10;;;;;;;7.88;7.07;;;9.10;99.90;;;;;;5115915;28;20432;-61
2023/04/21 10:59:37;;;;;;;10.18;7.07;;;9.10;99.90;;;;;;5115627;28;20047;-61
2023/04/21 11:02:03;;;;;;;6.80;6.10;;;9.20;99.90;;;;;;5115809;28;20067;-61
2023/04/21 11:04:30;;;;;;;10.73;8.07;;;9.20;99.90;;;;;;5113901;28;20070;-62
2023/04/21 11:06:57;;;;;;;6.72;5.95;;;9.40;99.90;;;;;;5115864;28;20050;-63
2023/04/21 11:09:24;;;;;;;5.70;5.10;;;9.50;99.90;;;;;;5115927;28;20375;-60
2023/04/21 11:11:51;;;;;;;6.65;6.03;;;9.60;99.90;;;;;;5116038;28;20463;-61
2023/04/21 11:14:18;;;;;;;8.30;6.30;;;9.70;99.90;;;;;;5115859;28;20063;-61
2023/04/21 11:16:45;;;;;;;6.18;5.57;;;9.90;99.90;;;;;;5115439;28;20470;-62
2023/04/21 11:19:12;;;;;;;7.88;6.95;;;9.90;99.90;;;;;;5115817;28;20047;-62
2023/04/21 11:21:38;;;;;;;7.25;6.55;;;9.90;99.90;;;;;;5115460;28;20077;-63
2023/04/21 11:24:05;;;;;;;8.15;7.35;;;9.90;99.90;;;;;;5115192;28;20040;-62
2023/04/21 11:26:32;;;;;;;8.40;7.60;;;9.80;99.90;;;;;;5115276;28;20050;-62
2023/04/21 11:28:59;;;;;;;8.30;7.50;;;9.80;99.90;;;;;;5115293;28;20089;-60
2023/04/21 11:31:25;;;;;;;8.23;7.43;;;9.70;99.90;;;;;;5113802;28;20490;-62
2023/04/21 11:33:52;;;;;;;8.50;7.63;;;9.70;99.90;;;;;;5115253;28;20047;-63
2023/04/21 11:36:19;;;;;;;11.00;9.23;;;9.60;99.90;;;;;;5114058;28;20060;-62
2023/04/21 11:38:45;;;;;;;11.55;10.32;;;9.60;99.90;;;;;;5115313;28;20050;-62
2023/04/21 11:41:12;;;;;;;11.80;10.70;;;9.60;99.90;;;;;;5115395;28;20039;-63
2023/04/21 11:43:39;;;;;;;11.75;10.55;;;9.60;99.90;;;;;;5115584;28;20042;-61
2023/04/21 11:46:06;;;;;;;12.02;10.93;;;9.70;99.90;;;;;;5114797;28;20050;-61
2023/04/21 11:48:33;;;;;;;12.63;11.40;;;9.70;99.90;;;;;;5115017;28;20073;-61
2023/04/21 11:51:00;;;;;;;12.85;11.48;;;9.80;99.90;;;;;;5113464;28;20044;-61
2023/04/21 11:53:27;;;;;;;12.85;11.60;;;9.80;99.90;;;;;;5114874;28;20085;-62
2023/04/21 11:55:55;;;;;;;11.02;9.93;;;9.80;99.90;;;;;;5113195;28;20051;-61
2023/04/21 11:58:22;;;;;;;11.32;10.23;;;10.00;99.90;;;;;;5114963;28;20050;-61
2023/04/21 12:00:49;;;;;;;11.50;10.40;;;10.10;99.90;;;;;;5114756;28;20071;-62
2023/04/21 12:03:16;;;;;;;11.38;10.27;;;10.30;99.90;;;;;;5114620;28;20047;-62
2023/04/21 12:05:43;;;;;;;11.57;10.48;;;10.50;99.90;;;;;;5114648;28;20039;-61
2023/04/21 12:08:10;;;;;;;10.50;9.40;;;10.60;99.90;;;;;;5113711;28;20458;-61
2023/04/21 12:10:36;;;;;;;9.88;8.98;;;10.80;99.90;;;;;;5114039;28;20486;-61
2023/04/21 12:13:03;;;;;;;9.10;8.30;;;10.90;99.90;;;;;;5112805;28;20093;-61
2023/04/21 12:15:30;;;;;;;9.30;8.43;;;11.00;99.90;;;;;;5113662;28;20433;-61
2023/04/21 12:17:57;;;;;;;9.05;8.20;;;11.00;99.90;;;;;;5113895;28;20035;-62
2023/04/21 12:20:24;;;;;;;9.70;8.80;;;11.00;99.90;;;;;;5113983;28;20039;-61
2023/04/21 12:22:52;;;;;;;9.02;8.23;;;10.90;99.90;;;;;;5114347;28;20084;-62
2023/04/21 12:25:19;;;;;;;11.88;9.70;;;11.00;99.90;;;;;;5114363;28;20096;-61
2023/04/21 12:27:45;;;;;;;10.13;9.13;;;11.10;99.90;;;;;;5114710;28;20054;-63
2023/04/21 12:30:12;;;;;;;11.43;10.43;;;11.10;99.90;;;;;;5114153;28;20131;-62
2023/04/21 12:32:39;;;;;;;12.05;10.95;;;11.10;99.90;;;;;;5114149;28;20089;-62
2023/04/21 12:35:06;;;;;;;12.80;11.60;;;11.20;99.90;;;;;;5114367;28;20036;-61
2023/04/21 12:37:32;;;;;;;15.63;11.23;;;11.30;99.90;;;;;;5114166;28;20035;-64